Time;durP1;ratioP1;P1;durP2;ratioP2;P2;SDS_P1;SDS_P2;PMS_P1;PMS_P2;Temp;Humidity;BMP_temperature;BMP_pressure;BME280_temperature;BME280_humidity;BME280_pressure;Samples;Min_cycle;Max_cycle;Signal;HPM_P1;HPM_P2
2023/05/10 00:00:59;;;;;;;4.80;2.37;;;;;;;;;;5033909;28;20181;-74
2023/05/10 00:04:03;;;;;;;3.40;2.00;;;;;;;;;;5021291;28;20683;-74
2023/05/10 00:07:07;;;;;;;3.27;2.07;;;;;;;;;;5009997;28;20185;-73
2023/05/10 00:10:11;;;;;;;1.87;1.67;;;;;;;;;;5023229;28;20212;-73
2023/05/10 00:13:15;;;;;;;4.73;1.57;;;;;;;;;;5033684;28;20212;-73
2023/05/10 00:16:19;;;;;;;4.63;1.63;;;;;;;;;;5033476;28;20521;-74
2023/05/10 00:19:23;;;;;;;3.30;1.30;;;;;;;;;;5033968;28;20177;-74
2023/05/10 00:22:27;;;;;;;4.27;1.40;;;;;;;;;;5033168;28;20228;-73
2023/05/10 00:25:32;;;;;;;2.67;1.27;;;;;;;;;;5021306;28;20181;-73
2023/05/10 00:28:36;;;;;;;3.40;1.30;;;;;;;;;;5033515;28;20173;-74
2023/05/10 00:31:40;;;;;;;6.20;1.37;;;;;;;;;;5021392;28;20220;-74
2023/05/10 00:34:44;;;;;;;1.60;1.27;;;;;;;;;;5033171;28;20172;-73
2023/05/10 00:37:49;;;;;;;3.10;1.20;;;;;;;;;;5010304;28;20184;-74
2023/05/10 00:40:53;;;;;;;1.70;1.40;;;;;;;;;;5021610;28;20628;-73
2023/05/10 00:44:04;;;;;;;1.83;1.40;;;;;;;;;;5021464;28;20216;-74
2023/05/10 00:47:09;;;;;;;2.50;1.40;;;;;;;;;;5021268;28;20185;-73
2023/05/10 00:50:15;;;;;;;1.60;1.50;;;;;;;;;;5021450;28;20636;-74
2023/05/10 00:53:19;;;;;;;1.87;1.60;;;;;;;;;;5033202;28;20212;-74
2023/05/10 00:56:24;;;;;;;3.07;1.27;;;;;;;;;;5021058;28;20177;-74
2023/05/10 00:59:29;;;;;;;2.70;1.70;;;;;;;;;;5021032;28;20532;-73
2023/05/10 01:02:35;;;;;;;1.70;1.53;;;;;;;;;;5009450;28;20228;-74
2023/05/10 01:05:38;;;;;;;1.50;1.40;;;;;;;;;;5021132;28;20177;-74
2023/05/10 01:08:43;;;;;;;2.10;1.90;;;;;;;;;;5012707;28;20181;-74
2023/05/10 01:11:47;;;;;;;2.17;1.97;;;;;;;;;;5037009;28;20216;-73
2023/05/10 01:14:51;;;;;;;2.47;1.67;;;;;;;;;;5013903;28;20177;-73
2023/05/10 01:17:56;;;;;;;6.53;2.47;;;;;;;;;;5024490;28;20184;-74
2023/05/10 01:21:29;;;;;;;3.67;1.97;;;;;;;;;;5002626;28;20181;-74
2023/05/10 01:24:56;;;;;;;3.00;1.93;;;;;;;;;;5024391;28;20204;-73
2023/05/10 01:28:28;;;;;;;2.17;1.87;;;;;;;;;;5013387;28;20185;-74
2023/05/10 01:31:50;;;;;;;2.40;1.77;;;;;;;;;;5036013;28;20220;-73
2023/05/10 01:35:03;;;;;;;2.10;1.90;;;;;;;;;;5024129;28;20185;-73
2023/05/10 01:38:32;;;;;;;1.77;1.60;;;;;;;;;;5035929;28;20185;-73
2023/05/10 01:41:47;;;;;;;1.93;1.73;;;;;;;;;;5036164;28;20220;-73
2023/05/10 01:45:02;;;;;;;1.80;1.50;;;;;;;;;;5023915;28;20177;-73
2023/05/10 01:48:09;;;;;;;2.93;1.80;;;;;;;;;;5024157;28;20185;-73
2023/05/10 01:51:19;;;;;;;2.53;1.93;;;;;;;;;;5023674;28;20177;-73
2023/05/10 01:54:24;;;;;;;1.93;1.60;;;;;;;;;;5012542;28;20173;-73
2023/05/10 01:57:34;;;;;;;2.53;1.80;;;;;;;;;;5023904;28;20181;-73
2023/05/10 02:00:42;;;;;;;2.00;1.60;;;;;;;;;;5012752;28;20177;-73
2023/05/10 02:03:49;;;;;;;1.57;1.30;;;;;;;;;;5023584;28;20668;-73
2023/05/10 02:06:55;;;;;;;2.43;1.80;;;;;;;;;;5012374;28;20624;-73
2023/05/10 02:10:00;;;;;;;1.90;1.80;;;;;;;;;;5035448;28;20213;-73
2023/05/10 02:13:07;;;;;;;1.70;1.60;;;;;;;;;;5023236;28;20217;-73
2023/05/10 02:16:12;;;;;;;1.63;1.53;;;;;;;;;;5023771;28;20177;-73
2023/05/10 02:19:18;;;;;;;1.97;1.87;;;;;;;;;;5022436;28;20517;-73
2023/05/10 02:22:23;;;;;;;1.73;1.63;;;;;;;;;;5023332;28;20695;-73
2023/05/10 02:25:29;;;;;;;2.10;1.40;;;;;;;;;;5035464;28;20173;-74
2023/05/10 02:28:35;;;;;;;2.03;1.70;;;;;;;;;;5035618;28;20185;-74
2023/05/10 02:31:43;;;;;;;1.40;1.30;;;;;;;;;;5022859;28;20224;-73
2023/05/10 02:34:51;;;;;;;3.20;1.60;;;;;;;;;;5022941;28;20624;-74
2023/05/10 02:37:57;;;;;;;2.13;1.70;;;;;;;;;;5022789;28;20197;-73
2023/05/10 02:41:03;;;;;;;2.40;1.40;;;;;;;;;;5022559;28;20177;-75
2023/05/10 02:44:09;;;;;;;1.83;1.20;;;;;;;;;;5035010;28;20667;-74
2023/05/10 02:47:13;;;;;;;2.13;1.40;;;;;;;;;;5011057;28;20181;-74
2023/05/10 02:50:19;;;;;;;3.50;1.30;;;;;;;;;;5022428;28;20256;-74
2023/05/10 02:53:31;;;;;;;2.03;1.00;;;;;;;;;;5022242;28;20213;-73
2023/05/10 02:56:40;;;;;;;2.20;1.17;;;;;;;;;;5034524;28;20636;-73
2023/05/10 02:59:45;;;;;;;1.10;1.00;;;;;;;;;;5022589;28;20181;-74
2023/05/10 03:02:49;;;;;;;1.77;1.10;;;;;;;;;;5010723;28;20216;-73
2023/05/10 03:05:55;;;;;;;1.10;0.90;;;;;;;;;;5022122;28;20184;-74
2023/05/10 03:09:01;;;;;;;2.50;1.00;;;;;;;;;;5010797;28;20568;-74
2023/05/10 03:12:31;;;;;;;1.20;1.07;;;;;;;;;;5034160;28;20691;-73
2023/05/10 03:15:57;;;;;;;2.87;1.20;;;;;;;;;;5022378;28;20177;-73
2023/05/10 03:19:32;;;;;;;1.47;0.97;;;;;;;;;;5011029;28;20181;-74
2023/05/10 03:22:40;;;;;;;3.40;1.00;;;;;;;;;;5010619;28;20212;-73
2023/05/10 03:25:47;;;;;;;1.10;1.00;;;;;;;;;;5022125;28;20169;-73
2023/05/10 03:28:53;;;;;;;2.00;1.00;;;;;;;;;;5022114;28;20173;-73
2023/05/10 03:31:59;;;;;;;2.83;1.23;;;;;;;;;;5021822;28;20208;-73
2023/05/10 03:35:08;;;;;;;1.93;1.20;;;;;;;;;;5022039;28;20173;-73
2023/05/10 03:38:13;;;;;;;0.93;0.90;;;;;;;;;;5021763;28;20185;-73
2023/05/10 03:41:17;;;;;;;1.77;1.00;;;;;;;;;;5021908;28;20632;-73
2023/05/10 03:44:21;;;;;;;1.57;1.20;;;;;;;;;;5021545;28;20212;-73
2023/05/10 03:47:25;;;;;;;1.57;1.47;;;;;;;;;;5010311;28;20185;-73
2023/05/10 03:50:29;;;;;;;1.30;1.20;;;;;;;;;;5021755;28;20548;-73
2023/05/10 03:53:34;;;;;;;1.40;1.30;;;;;;;;;;5022022;28;20173;-73
2023/05/10 03:56:38;;;;;;;3.57;1.30;;;;;;;;;;5010396;28;20173;-73
2023/05/10 03:59:43;;;;;;;1.60;1.50;;;;;;;;;;5021178;28;20177;-73
2023/05/10 04:02:47;;;;;;;1.40;1.20;;;;;;;;;;5021278;28;20224;-73
2023/05/10 04:06:01;;;;;;;1.93;1.57;;;;;;;;;;5021114;28;20197;-73
2023/05/10 04:09:05;;;;;;;1.90;1.50;;;;;;;;;;5009691;28;20200;-73
2023/05/10 04:12:09;;;;;;;3.40;1.40;;;;;;;;;;5033268;28;20216;-74
2023/05/10 04:15:13;;;;;;;1.33;1.23;;;;;;;;;;5033212;28;20173;-74
2023/05/10 04:18:17;;;;;;;1.50;1.40;;;;;;;;;;5033036;28;20640;-73
2023/05/10 04:21:21;;;;;;;1.97;1.20;;;;;;;;;;5021004;28;20220;-73
2023/05/10 04:24:25;;;;;;;2.00;1.20;;;;;;;;;;5020808;28;20679;-73
2023/05/10 04:27:29;;;;;;;1.93;1.40;;;;;;;;;;5032892;28;20181;-74
2023/05/10 04:30:34;;;;;;;2.73;1.40;;;;;;;;;;5033927;28;20177;-73
2023/05/10 04:33:38;;;;;;;1.67;0.90;;;;;;;;;;5056173;23;20238;-71
2023/05/10 04:36:42;;;;;;;1.27;0.60;;;;;;;;;;5072998;28;20172;-70
2023/05/10 04:39:46;;;;;;;1.10;0.77;;;;;;;;;;5072717;28;20630;-70
2023/05/10 04:42:50;;;;;;;1.37;0.70;;;;;;;;;;5059429;28;20216;-71
2023/05/10 04:45:56;;;;;;;0.60;0.50;;;;;;;;;;5044318;28;20180;-70
2023/05/10 04:49:00;;;;;;;0.73;0.70;;;;;;;;;;5056553;28;20172;-70
2023/05/10 04:52:04;;;;;;;1.07;0.63;;;;;;;;;;5056411;28;20219;-70
2023/05/10 04:55:09;;;;;;;1.20;0.40;;;;;;;;;;5057001;28;20176;-70
2023/05/10 04:58:13;;;;;;;0.90;0.60;;;;;;;;;;5056535;28;20172;-70
2023/05/10 05:01:18;;;;;;;1.63;0.80;;;;;;;;;;5056421;28;20631;-70
2023/05/10 05:04:23;;;;;;;0.67;0.60;;;;;;;;;;5044648;28;20208;-70
2023/05/10 05:07:27;;;;;;;1.13;0.50;;;;;;;;;;5056589;28;20196;-70
2023/05/10 05:10:31;;;;;;;0.50;0.40;;;;;;;;;;5056548;28;20172;-70
2023/05/10 05:13:35;;;;;;;0.50;0.40;;;;;;;;;;5044316;28;20512;-71
2023/05/10 05:16:39;;;;;;;4.40;0.60;;;;;;;;;;5056321;28;20184;-70
2023/05/10 05:19:44;;;;;;;1.00;0.40;;;;;;;;;;5043847;28;20176;-70
2023/05/10 05:22:48;;;;;;;0.47;0.40;;;;;;;;;;5056040;28;20219;-70
2023/05/10 05:25:52;;;;;;;0.57;0.50;;;;;;;;;;5055856;28;20223;-71
2023/05/10 05:28:57;;;;;;;0.40;0.40;;;;;;;;;;5043934;28;20192;-70
2023/05/10 05:32:01;;;;;;;2.83;0.50;;;;;;;;;;5043840;28;20216;-71
2023/05/10 05:35:05;;;;;;;0.40;0.40;;;;;;;;;;5043777;28;20168;-70
2023/05/10 05:38:09;;;;;;;22.80;13.67;;;;;;;;;;5056060;28;20180;-70
2023/05/10 05:41:13;;;;;;;39.90;23.93;;;;;;;;;;5055902;28;20195;-70
2023/05/10 05:44:17;;;;;;;7.97;6.30;;;;;;;;;;5055584;28;20227;-71
2023/05/10 05:47:22;;;;;;;1.07;0.93;;;;;;;;;;5055677;28;20524;-71
2023/05/10 05:50:26;;;;;;;0.80;0.80;;;;;;;;;;5056150;28;20176;-70
2023/05/10 05:53:30;;;;;;;0.80;0.80;;;;;;;;;;5055768;28;20180;-70
2023/05/10 05:56:34;;;;;;;0.83;0.80;;;;;;;;;;5043155;28;20176;-70
2023/05/10 05:59:43;;;;;;;0.90;0.70;;;;;;;;;;5055585;28;20180;-70
2023/05/10 06:02:47;;;;;;;1.07;0.87;;;;;;;;;;5042995;28;20216;-71
2023/05/10 06:05:51;;;;;;;1.73;0.77;;;;;;;;;;5043181;28;20203;-71
2023/05/10 06:08:55;;;;;;;3.10;1.60;;;;;;;;;;5055150;28;20176;-71
2023/05/10 06:11:59;;;;;;;1.40;1.00;;;;;;;;;;5043204;28;20208;-70
2023/05/10 06:15:04;;;;;;;1.00;0.90;;;;;;;;;;5055012;28;20196;-71
2023/05/10 06:18:09;;;;;;;2.03;0.70;;;;;;;;;;5043021;28;20181;-71
2023/05/10 06:21:14;;;;;;;1.67;0.93;;;;;;;;;;5042911;28;20180;-70
2023/05/10 06:24:18;;;;;;;1.07;0.97;;;;;;;;;;5055246;28;20208;-71
2023/05/10 06:27:22;;;;;;;1.53;0.93;;;;;;;;;;5055177;28;20184;-70
2023/05/10 06:30:28;;;;;;;2.23;0.90;;;;;;;;;;5055112;28;20177;-71
2023/05/10 06:33:32;;;;;;;1.00;0.90;;;;;;;;;;5042695;28;20203;-71
2023/05/10 06:36:36;;;;;;;1.00;0.90;;;;;;;;;;5054974;28;20176;-71
2023/05/10 06:39:41;;;;;;;1.03;0.90;;;;;;;;;;5054919;28;20180;-71
2023/05/10 06:42:46;;;;;;;1.20;1.00;;;;;;;;;;5042320;28;20686;-70
2023/05/10 06:45:50;;;;;;;1.10;1.00;;;;;;;;;;5042510;28;20204;-71
2023/05/10 06:48:54;;;;;;;1.23;0.90;;;;;;;;;;5054483;28;20180;-71
2023/05/10 06:51:58;;;;;;;1.07;0.97;;;;;;;;;;5042294;28;20220;-71
2023/05/10 06:55:04;;;;;;;0.83;0.77;;;;;;;;;;5042329;28;20181;-71
2023/05/10 06:58:08;;;;;;;1.77;0.93;;;;;;;;;;5055082;28;20180;-71
2023/05/10 07:01:12;;;;;;;1.97;0.90;;;;;;;;;;5042141;28;20528;-71
2023/05/10 07:04:17;;;;;;;0.90;0.70;;;;;;;;;;5042154;28;20176;-71
2023/05/10 07:07:21;;;;;;;1.63;0.80;;;;;;;;;;5054336;28;20176;-71
2023/05/10 07:10:25;;;;;;;0.87;0.80;;;;;;;;;;5054201;28;20184;-71
2023/05/10 07:13:31;;;;;;;1.37;0.90;;;;;;;;;;5042030;28;20516;-71
2023/05/10 07:16:35;;;;;;;1.53;0.97;;;;;;;;;;5054107;28;20172;-71
2023/05/10 07:19:39;;;;;;;2.93;1.20;;;;;;;;;;5041808;28;20516;-71
2023/05/10 07:22:43;;;;;;;3.10;1.30;;;;;;;;;;5041730;28;20212;-71
2023/05/10 07:25:48;;;;;;;4.07;1.20;;;;;;;;;;5041819;28;20204;-71
2023/05/10 07:28:52;;;;;;;1.53;1.20;;;;;;;;;;5054238;28;20176;-71
2023/05/10 07:31:56;;;;;;;1.30;1.20;;;;;;;;;;5053914;28;20224;-71
2023/05/10 07:35:00;;;;;;;2.00;1.20;;;;;;;;;;5041693;28;20504;-71
2023/05/10 07:38:04;;;;;;;2.20;1.37;;;;;;;;;;5054066;28;20180;-71
2023/05/10 07:41:09;;;;;;;1.73;1.50;;;;;;;;;;5041335;28;20176;-71
2023/05/10 07:44:13;;;;;;;1.50;1.37;;;;;;;;;;5053705;28;20185;-71
2023/05/10 07:47:17;;;;;;;1.87;1.20;;;;;;;;;;5053330;28;20191;-71
2023/05/10 07:50:22;;;;;;;2.30;1.50;;;;;;;;;;5029901;28;20180;-72
2023/05/10 07:53:27;;;;;;;1.40;1.17;;;;;;;;;;5053589;28;20188;-71
2023/05/10 07:56:32;;;;;;;1.27;1.17;;;;;;;;;;5053509;28;20516;-71
2023/05/10 07:59:36;;;;;;;1.30;1.20;;;;;;;;;;5053493;28;20183;-71
2023/05/10 08:02:40;;;;;;;1.43;1.20;;;;;;;;;;5053365;28;20216;-71
2023/05/10 08:05:44;;;;;;;2.00;1.43;;;;;;;;;;5053079;28;20200;-72
2023/05/10 08:08:50;;;;;;;3.60;1.40;;;;;;;;;;5053659;28;20516;-71
2023/05/10 08:11:54;;;;;;;1.67;1.40;;;;;;;;;;5053087;28;20216;-71
2023/05/10 08:14:58;;;;;;;3.03;1.10;;;;;;;;;;5041091;28;20176;-71
2023/05/10 08:18:03;;;;;;;1.10;1.00;;;;;;;;;;5052110;28;20515;-71
2023/05/10 08:21:08;;;;;;;1.37;1.10;;;;;;;;;;5040886;28;20192;-71
2023/05/10 08:24:12;;;;;;;1.83;1.00;;;;;;;;;;5040709;28;20196;-71
2023/05/10 08:27:16;;;;;;;2.67;1.00;;;;;;;;;;5053229;28;20172;-71
2023/05/10 08:30:20;;;;;;;1.10;1.00;;;;;;;;;;5052957;28;20227;-71
2023/05/10 08:33:24;;;;;;;1.43;1.30;;;;;;;;;;5052803;28;20231;-72
2023/05/10 08:36:29;;;;;;;1.27;0.90;;;;;;;;;;5040925;28;20180;-71
2023/05/10 08:39:35;;;;;;;1.00;0.90;;;;;;;;;;5053034;28;20184;-71
2023/05/10 08:42:43;;;;;;;1.57;1.00;;;;;;;;;;5052842;28;20211;-71
2023/05/10 08:45:49;;;;;;;1.53;0.90;;;;;;;;;;5052988;28;20564;-71
2023/05/10 08:48:54;;;;;;;1.70;1.60;;;;;;;;;;5040440;28;20200;-71
2023/05/10 08:52:01;;;;;;;2.00;1.47;;;;;;;;;;5053192;28;20208;-71
2023/05/10 08:55:05;;;;;;;5.57;1.40;;;;;;;;;;5029340;28;20643;-71
2023/05/10 08:58:09;;;;;;;2.57;1.13;;;;;;;;;;5040554;28;20658;-72
2023/05/10 09:01:16;;;;;;;1.90;1.30;;;;;;;;;;5052744;28;20177;-71
2023/05/10 09:04:20;;;;;;;1.33;0.97;;;;;;;;;;5040626;28;20172;-71
2023/05/10 09:07:25;;;;;;;2.10;1.20;;;;;;;;;;5052778;28;20184;-71
2023/05/10 09:10:30;;;;;;;3.80;0.93;;;;;;;;;;5052593;28;20173;-71
2023/05/10 09:13:35;;;;;;;2.43;1.00;;;;;;;;;;5053319;28;20176;-71
2023/05/10 09:16:39;;;;;;;1.40;0.90;;;;;;;;;;5040410;28;20177;-71
2023/05/10 09:19:45;;;;;;;1.63;1.00;;;;;;;;;;5040442;28;20172;-71
2023/05/10 09:22:49;;;;;;;2.50;1.20;;;;;;;;;;5052301;28;20215;-71
2023/05/10 09:26:06;;;;;;;1.97;1.43;;;;;;;;;;5052332;28;20204;-71
2023/05/10 09:29:11;;;;;;;2.40;1.57;;;;;;;;;;5055006;28;20180;-71
2023/05/10 09:32:15;;;;;;;1.50;1.37;;;;;;;;;;5043600;28;20212;-70
2023/05/10 09:35:22;;;;;;;1.67;1.57;;;;;;;;;;5043612;28;20172;-71
2023/05/10 09:38:26;;;;;;;2.50;1.43;;;;;;;;;;5044327;28;20172;-71
2023/05/10 09:41:30;;;;;;;2.27;1.53;;;;;;;;;;5055904;28;20211;-71
2023/05/10 09:44:35;;;;;;;3.07;1.77;;;;;;;;;;5055964;28;20180;-71
2023/05/10 09:47:39;;;;;;;1.47;1.37;;;;;;;;;;5055648;28;20173;-69
2023/05/10 09:50:43;;;;;;;3.37;1.40;;;;;;;;;;5032165;28;20188;-71
2023/05/10 09:53:47;;;;;;;1.67;1.27;;;;;;;;;;5055749;28;20210;-71
2023/05/10 09:56:51;;;;;;;1.77;1.20;;;;;;;;;;5055426;28;20192;-70
2023/05/10 09:59:57;;;;;;;2.33;1.23;;;;;;;;;;5043334;28;20200;-71
2023/05/10 10:03:03;;;;;;;4.40;1.20;;;;;;;;;;5055519;28;20215;-70
2023/05/10 10:06:08;;;;;;;1.53;1.13;;;;;;;;;;5043424;28;20208;-71
2023/05/10 10:09:12;;;;;;;1.57;0.90;;;;;;;;;;5043226;28;20196;-71
2023/05/10 10:12:17;;;;;;;1.03;0.90;;;;;;;;;;5055207;28;20211;-71
2023/05/10 10:15:21;;;;;;;2.03;1.20;;;;;;;;;;5043361;28;20196;-71
2023/05/10 10:18:28;;;;;;;2.00;1.03;;;;;;;;;;5055297;28;20195;-71
2023/05/10 10:21:32;;;;;;;1.40;1.00;;;;;;;;;;5043264;28;20208;-70
2023/05/10 10:24:36;;;;;;;1.13;0.90;;;;;;;;;;5031326;28;20520;-71
2023/05/10 10:27:53;;;;;;;1.37;0.70;;;;;;;;;;5055484;28;20180;-71
2023/05/10 10:31:03;;;;;;;1.60;0.90;;;;;;;;;;5054808;28;20659;-72
2023/05/10 10:34:28;;;;;;;5.00;1.10;;;;;;;;;;5069979;22;20228;-72
2023/05/10 10:37:47;;;;;;;2.70;1.10;;;;;;;;;;5042702;28;20516;-73
2023/05/10 10:41:11;;;;;;;1.97;1.77;;;;;;;;;;5053928;28;20188;-73
2023/05/10 10:44:31;;;;;;;11.67;7.07;;;;;;;;;;5022801;28;20189;-73
2023/05/10 10:47:37;;;;;;;4.60;2.60;;;;;;;;;;5022721;28;20521;-73
2023/05/10 10:50:45;;;;;;;18.20;10.40;;;;;;;;;;5034815;28;20263;-73
2023/05/10 10:53:49;;;;;;;16.47;9.07;;;;;;;;;;5022219;28;20212;-73
2023/05/10 10:57:14;;;;;;;12.23;6.87;;;;;;;;;;5034416;28;20189;-73
2023/05/10 11:00:21;;;;;;;30.43;17.10;;;;;;;;;;5034657;28;20181;-73
2023/05/10 11:03:28;;;;;;;12.63;7.63;;;;;;;;;;5034492;28;20192;-73
2023/05/10 11:06:34;;;;;;;16.70;11.97;;;;;;;;;;5034405;28;20212;-73
2023/05/10 11:09:40;;;;;;;7.13;4.60;;;;;;;;;;5034448;28;20207;-72
2023/05/10 11:13:00;;;;;;;3.27;1.10;;;;;;;;;;5034853;28;20216;-72
2023/05/10 11:16:16;;;;;;;1.20;0.90;;;;;;;;;;5034310;28;20284;-73
2023/05/10 11:19:21;;;;;;;1.47;1.10;;;;;;;;;;5022059;28;20189;-73
2023/05/10 11:22:25;;;;;;;1.00;0.80;;;;;;;;;;5021928;28;20212;-73
2023/05/10 11:25:29;;;;;;;1.00;0.90;;;;;;;;;;5034295;28;20181;-73
2023/05/10 11:28:33;;;;;;;2.53;1.00;;;;;;;;;;5034144;28;20185;-73
2023/05/10 11:31:43;;;;;;;2.40;1.10;;;;;;;;;;5021957;28;20216;-74
2023/05/10 11:34:48;;;;;;;1.70;0.93;;;;;;;;;;5021500;28;20556;-74
2023/05/10 11:37:52;;;;;;;1.57;1.03;;;;;;;;;;5021850;28;20181;-73
2023/05/10 11:40:56;;;;;;;14.90;9.60;;;;;;;;;;5033979;28;20185;-74
2023/05/10 11:44:01;;;;;;;2.93;2.50;;;;;;;;;;5034103;28;20181;-73
2023/05/10 11:47:05;;;;;;;3.13;1.90;;;;;;;;;;5021424;28;20200;-73
2023/05/10 11:50:11;;;;;;;3.77;1.97;;;;;;;;;;5022069;28;20522;-74
2023/05/10 11:53:15;;;;;;;2.57;1.40;;;;;;;;;;5033347;28;20212;-73
2023/05/10 11:56:20;;;;;;;3.17;1.40;;;;;;;;;;5021562;28;20532;-74
2023/05/10 11:59:24;;;;;;;24.20;17.97;;;;;;;;;;5021233;28;20177;-73
2023/05/10 12:02:29;;;;;;;3.23;2.90;;;;;;;;;;5021694;28;20255;-73
2023/05/10 12:05:33;;;;;;;3.77;1.60;;;;;;;;;;5021951;28;20185;-73
2023/05/10 12:08:45;;;;;;;7.50;1.90;;;;;;;;;;5033502;28;20525;-74
2023/05/10 12:11:54;;;;;;;2.37;1.00;;;;;;;;;;5021432;28;20217;-73
2023/05/10 12:14:59;;;;;;;1.93;1.30;;;;;;;;;;5025581;28;20181;-73
2023/05/10 12:18:03;;;;;;;2.27;0.80;;;;;;;;;;5037842;28;20223;-73
2023/05/10 12:21:10;;;;;;;0.60;0.60;;;;;;;;;;5038244;28;20184;-73
2023/05/10 12:24:17;;;;;;;1.37;0.70;;;;;;;;;;5025911;28;20181;-74
2023/05/10 12:27:22;;;;;;;2.27;1.10;;;;;;;;;;5025327;28;20216;-74
2023/05/10 12:30:29;;;;;;;1.33;0.83;;;;;;;;;;5025670;28;20188;-72
2023/05/10 12:33:42;;;;;;;0.87;0.63;;;;;;;;;;5036759;28;20181;-73
2023/05/10 12:36:50;;;;;;;1.97;0.80;;;;;;;;;;5024492;28;20180;-73
2023/05/10 12:39:54;;;;;;;0.87;0.60;;;;;;;;;;5024046;28;20196;-74
2023/05/10 12:42:59;;;;;;;0.97;0.50;;;;;;;;;;5022895;28;20216;-73
2023/05/10 12:46:10;;;;;;;1.77;0.70;;;;;;;;;;5023084;28;20181;-74
2023/05/10 12:49:14;;;;;;;0.97;0.50;;;;;;;;;;5035007;28;20513;-74
2023/05/10 12:52:18;;;;;;;0.60;0.50;;;;;;;;;;5034705;28;20216;-74
2023/05/10 12:55:22;;;;;;;2.50;2.20;;;;;;;;;;5034772;28;20516;-74
2023/05/10 12:58:26;;;;;;;6.57;5.47;;;;;;;;;;5034624;28;20620;-74
2023/05/10 13:01:31;;;;;;;1.70;1.50;;;;;;;;;;5034141;28;20216;-74
2023/05/10 13:04:39;;;;;;;1.23;0.90;;;;;;;;;;5024875;28;20181;-74
2023/05/10 13:07:43;;;;;;;1.00;0.90;;;;;;;;;;5037637;28;20209;-73
2023/05/10 13:10:48;;;;;;;0.93;0.83;;;;;;;;;;5037866;28;20181;-74
2023/05/10 13:13:52;;;;;;;1.47;0.90;;;;;;;;;;5037866;28;20628;-73
2023/05/10 13:16:56;;;;;;;1.10;1.00;;;;;;;;;;5037376;28;20185;-74
2023/05/10 13:20:00;;;;;;;2.70;1.20;;;;;;;;;;5025343;28;20177;-73
2023/05/10 13:23:04;;;;;;;4.10;0.90;;;;;;;;;;5037118;28;20216;-74
2023/05/10 13:26:08;;;;;;;1.10;0.97;;;;;;;;;;5036821;28;20181;-74
2023/05/10 13:29:12;;;;;;;2.30;0.87;;;;;;;;;;5024334;28;20184;-74
2023/05/10 13:32:17;;;;;;;0.97;0.93;;;;;;;;;;5024433;28;20220;-74
2023/05/10 13:35:21;;;;;;;2.00;1.30;;;;;;;;;;5024289;28;20205;-74
2023/05/10 13:38:25;;;;;;;3.07;0.90;;;;;;;;;;5013316;28;20517;-74
2023/05/10 13:41:29;;;;;;;1.40;1.20;;;;;;;;;;5023993;28;20216;-74
2023/05/10 13:44:34;;;;;;;2.80;1.37;;;;;;;;;;5036787;28;20177;-74
2023/05/10 13:47:38;;;;;;;6.47;1.73;;;;;;;;;;5023876;28;20544;-74
2023/05/10 13:50:42;;;;;;;3.60;2.50;;;;;;;;;;5036518;28;20624;-73
2023/05/10 13:53:47;;;;;;;6.00;2.63;;;;;;;;;;5024160;28;20529;-74
2023/05/10 13:56:50;;;;;;;46.97;24.87;;;;;;;;;;5036098;28;20177;-73
2023/05/10 13:59:54;;;;;;;9.47;6.47;;;;;;;;;;5023984;28;20188;-73
2023/05/10 14:02:59;;;;;;;4.57;1.73;;;;;;;;;;5035811;28;20560;-73
2023/05/10 14:06:03;;;;;;;3.43;1.30;;;;;;;;;;5036162;28;20196;-73
2023/05/10 14:09:07;;;;;;;2.70;1.40;;;;;;;;;;5035516;28;20189;-73
2023/05/10 14:12:11;;;;;;;2.00;1.43;;;;;;;;;;5023469;28;20217;-74
2023/05/10 14:15:15;;;;;;;2.83;1.33;;;;;;;;;;5035438;28;20196;-73
2023/05/10 14:18:19;;;;;;;3.93;1.00;;;;;;;;;;5035395;28;20196;-73
2023/05/10 14:21:23;;;;;;;3.07;1.00;;;;;;;;;;5035740;28;20216;-74
2023/05/10 14:24:27;;;;;;;2.40;1.10;;;;;;;;;;5035700;28;20204;-74
2023/05/10 14:27:32;;;;;;;1.60;1.00;;;;;;;;;;5022924;28;20208;-73
2023/05/10 14:30:36;;;;;;;2.80;1.20;;;;;;;;;;5035594;28;20189;-74
2023/05/10 14:33:40;;;;;;;1.67;1.03;;;;;;;;;;5035349;28;20205;-73
2023/05/10 14:36:44;;;;;;;1.30;1.10;;;;;;;;;;5035434;28;20161;-73
2023/05/10 14:39:49;;;;;;;1.50;0.97;;;;;;;;;;5022979;28;20173;-73
2023/05/10 14:42:53;;;;;;;0.60;0.60;;;;;;;;;;5022903;28;20220;-73
2023/05/10 14:45:57;;;;;;;8.23;3.90;;;;;;;;;;5034958;28;20185;-75
2023/05/10 14:49:01;;;;;;;5.07;1.77;;;;;;;;;;5035149;28;20169;-75
2023/05/10 14:52:05;;;;;;;4.10;1.90;;;;;;;;;;5022638;28;20216;-75
2023/05/10 14:55:09;;;;;;;5.27;1.93;;;;;;;;;;5034831;28;20185;-75
2023/05/10 14:58:13;;;;;;;10.77;2.60;;;;;;;;;;5035162;28;20173;-74
2023/05/10 15:01:18;;;;;;;8.27;1.80;;;;;;;;;;5034593;28;20181;-75
2023/05/10 15:04:23;;;;;;;3.47;1.90;;;;;;;;;;5022496;28;20521;-75
2023/05/10 15:07:26;;;;;;;13.90;1.87;;;;;;;;;;5034801;28;20209;-75
2023/05/10 15:10:32;;;;;;;3.33;0.83;;;;;;;;;;5034334;28;20180;-75
2023/05/10 15:13:36;;;;;;;1.90;0.70;;;;;;;;;;5022354;28;20185;-75
2023/05/10 15:16:40;;;;;;;3.30;0.70;;;;;;;;;;5034166;28;20181;-75
2023/05/10 15:19:44;;;;;;;3.20;1.00;;;;;;;;;;5034414;28;20521;-75
2023/05/10 15:22:48;;;;;;;2.30;0.90;;;;;;;;;;5010823;28;20216;-75
2023/05/10 15:25:55;;;;;;;2.60;0.70;;;;;;;;;;5021322;28;20180;-75
2023/05/10 15:28:59;;;;;;;2.73;1.53;;;;;;;;;;5033121;28;20205;-75
2023/05/10 15:32:03;;;;;;;7.47;4.67;;;;;;;;;;5033845;28;20683;-75
2023/05/10 15:35:08;;;;;;;5.67;3.23;;;;;;;;;;5021787;28;20204;-75
2023/05/10 15:38:12;;;;;;;1.97;1.17;;;;;;;;;;5033882;28;20648;-75
2023/05/10 15:41:16;;;;;;;2.57;0.87;;;;;;;;;;5021608;28;20667;-76
2023/05/10 15:44:20;;;;;;;1.43;0.90;;;;;;;;;;5034185;28;20172;-75
2023/05/10 15:47:25;;;;;;;1.10;1.00;;;;;;;;;;5033097;28;20201;-75
2023/05/10 15:50:29;;;;;;;2.10;1.10;;;;;;;;;;5034143;28;20177;-75
2023/05/10 15:53:34;;;;;;;6.57;1.30;;;;;;;;;;5010340;28;20640;-74
2023/05/10 15:56:39;;;;;;;1.80;0.87;;;;;;;;;;5021819;28;20181;-75
2023/05/10 15:59:43;;;;;;;1.37;0.90;;;;;;;;;;5033835;28;20177;-75
2023/05/10 16:02:47;;;;;;;2.03;0.83;;;;;;;;;;5033691;28;20224;-75
2023/05/10 16:05:51;;;;;;;2.70;0.90;;;;;;;;;;5033796;28;20181;-76
2023/05/10 16:08:55;;;;;;;0.83;0.73;;;;;;;;;;5033586;28;20200;-75
2023/05/10 16:12:00;;;;;;;2.50;0.87;;;;;;;;;;5021254;28;20687;-75
2023/05/10 16:15:05;;;;;;;1.73;0.90;;;;;;;;;;5021415;28;20636;-75
2023/05/10 16:18:09;;;;;;;1.43;1.00;;;;;;;;;;5033593;28;20193;-75
2023/05/10 16:21:14;;;;;;;1.30;1.20;;;;;;;;;;5034698;28;20189;-75
2023/05/10 16:24:18;;;;;;;2.73;1.30;;;;;;;;;;5010311;28;20655;-73
2023/05/10 16:27:22;;;;;;;2.00;1.60;;;;;;;;;;5021293;28;20216;-74
2023/05/10 16:30:29;;;;;;;2.80;1.20;;;;;;;;;;5033663;28;20205;-75
2023/05/10 16:33:32;;;;;;;5.23;1.30;;;;;;;;;;5021895;28;20176;-73
2023/05/10 16:36:36;;;;;;;2.30;1.07;;;;;;;;;;5033616;28;20201;-73
2023/05/10 16:39:41;;;;;;;5.00;3.50;;;;;;;;;;5025069;28;20189;-74
2023/05/10 16:42:45;;;;;;;21.10;15.23;;;;;;;;;;5037390;28;20220;-74
2023/05/10 16:45:49;;;;;;;28.07;15.73;;;;;;;;;;5037339;28;20200;-73
2023/05/10 16:48:53;;;;;;;57.97;31.03;;;;;;;;;;5036959;28;20223;-73
2023/05/10 16:51:58;;;;;;;16.10;9.37;;;;;;;;;;5037190;28;20235;-73
2023/05/10 16:55:04;;;;;;;9.23;5.13;;;;;;;;;;5037175;28;20185;-75
2023/05/10 16:58:08;;;;;;;4.33;2.33;;;;;;;;;;5024806;28;20201;-75
2023/05/10 17:01:11;;;;;;;3.63;1.57;;;;;;;;;;5025011;28;20204;-75
2023/05/10 17:04:16;;;;;;;3.60;1.43;;;;;;;;;;5013694;28;20647;-75
2023/05/10 17:07:21;;;;;;;3.30;1.50;;;;;;;;;;5037170;28;20177;-74
2023/05/10 17:10:25;;;;;;;2.30;1.83;;;;;;;;;;5024584;28;20188;-75
2023/05/10 17:13:30;;;;;;;2.80;1.57;;;;;;;;;;5024714;28;20177;-74
2023/05/10 17:16:35;;;;;;;2.10;1.90;;;;;;;;;;5024460;28;20196;-75
2023/05/10 17:19:43;;;;;;;3.13;2.50;;;;;;;;;;5036135;28;20189;-75
2023/05/10 17:22:47;;;;;;;5.13;2.43;;;;;;;;;;5036372;28;20224;-74
2023/05/10 17:25:51;;;;;;;2.40;1.50;;;;;;;;;;5036173;28;20181;-74
2023/05/10 17:28:57;;;;;;;3.70;1.10;;;;;;;;;;5023920;28;20225;-74
2023/05/10 17:32:02;;;;;;;3.53;1.37;;;;;;;;;;5036199;28;20220;-75
2023/05/10 17:35:06;;;;;;;2.40;1.10;;;;;;;;;;5035902;28;20200;-75
2023/05/10 17:38:10;;;;;;;2.20;1.30;;;;;;;;;;5036035;28;20193;-74
2023/05/10 17:41:14;;;;;;;2.63;1.00;;;;;;;;;;5023493;28;20201;-74
2023/05/10 17:44:18;;;;;;;1.70;1.30;;;;;;;;;;5036307;28;20181;-75
2023/05/10 17:47:23;;;;;;;1.20;1.07;;;;;;;;;;5035937;28;20620;-75
2023/05/10 17:50:27;;;;;;;1.10;0.87;;;;;;;;;;5023446;28;20193;-75
2023/05/10 17:53:34;;;;;;;6.37;1.00;;;;;;;;;;5035603;28;20185;-74
2023/05/10 17:56:38;;;;;;;1.23;0.90;;;;;;;;;;5035517;28;20185;-74
2023/05/10 17:59:42;;;;;;;1.70;1.33;;;;;;;;;;5035807;28;20612;-74
2023/05/10 18:02:46;;;;;;;1.30;1.13;;;;;;;;;;5035420;28;20213;-74
2023/05/10 18:05:50;;;;;;;4.33;3.03;;;;;;;;;;5035869;28;20524;-74
2023/05/10 18:08:54;;;;;;;13.37;7.87;;;;;;;;;;5035505;28;20208;-74
2023/05/10 18:12:01;;;;;;;16.80;12.60;;;;;;;;;;5023103;28;20221;-74
2023/05/10 18:15:05;;;;;;;4.70;4.30;;;;;;;;;;5035703;28;20188;-74
2023/05/10 18:18:10;;;;;;;3.53;2.53;;;;;;;;;;5012070;28;20177;-74
2023/05/10 18:21:13;;;;;;;3.90;2.33;;;;;;;;;;5035345;28;20196;-74
2023/05/10 18:24:20;;;;;;;9.90;6.20;;;;;;;;;;5022963;28;20204;-74
2023/05/10 18:27:24;;;;;;;23.27;13.63;;;;;;;;;;5022911;28;20181;-74
2023/05/10 18:30:29;;;;;;;5.33;3.03;;;;;;;;;;5000571;28;20188;-74